Nizhniy Novgorod, Russia
Current Conditions -  °F | °C
As of 2:30 PM on Thursday 27 Nov 2014 (Local Time) from UWGG Reporting Station
Light Snow Light Snow  
Wind Chill: 23°   Ceiling: 1000
Heat Index: 23°   Visibility: 4mi
Dew Point: 21°   Wind: 0mph
Humidity: 93%   Direction: NA
Pressure: 30.5"   Gusts: NA
Location:  56.33°N, 44°E
Report Text: UWGG 271130Z 00000MPS 6000 -SG OVC010 M05/M06 Q1033 TEMPOOVC004 18390038 RMK QFE768
Loading
Personal Weather Stations






























Interactive Weather Map New forecast layout! Learn more

10-Day Weather Forecast

Advertisements
Track Severe Weather on mobile